createdAt,value
2023-04-01T00:00:33.270Z,10.99
2023-04-01T00:03:36.112Z,11.00
2023-04-01T00:06:37.671Z,10.92
2023-04-01T00:09:39.032Z,10.84
2023-04-01T00:12:41.535Z,10.80
2023-04-01T00:15:44.036Z,10.78
2023-04-01T00:18:45.495Z,10.75
2023-04-01T00:21:47.395Z,10.76
2023-04-01T00:24:48.826Z,10.75
2023-04-01T00:27:50.957Z,10.70
2023-04-01T00:30:52.370Z,10.68
2023-04-01T00:33:53.837Z,10.69
2023-04-01T00:36:55.310Z,10.72
2023-04-01T00:39:57.670Z,10.73
2023-04-01T00:43:00.064Z,10.72
2023-04-01T00:46:01.492Z,10.71
2023-04-01T00:49:03.530Z,10.73
2023-04-01T00:52:08.417Z,10.72
2023-04-01T00:55:13.583Z,10.70
2023-04-01T00:58:19.373Z,10.71
2023-04-01T01:01:24.733Z,10.76
2023-04-01T01:04:29.461Z,10.73
2023-04-01T01:07:45.873Z,10.75
2023-04-01T01:10:51.304Z,10.71
2023-04-01T01:14:24.691Z,10.73
2023-04-01T01:17:42.292Z,10.68
2023-04-01T01:21:29.289Z,10.69
2023-04-01T01:25:05.974Z,10.65
2023-04-01T01:28:27.537Z,10.65
2023-04-01T01:31:43.655Z,10.67
2023-04-01T01:34:51.091Z,10.72
2023-04-01T01:37:58.214Z,10.71
2023-04-01T01:41:02.346Z,10.71
2023-04-01T01:44:07.042Z,10.72
2023-04-01T01:47:09.147Z,10.75
2023-04-01T01:50:11.931Z,10.77
2023-04-01T01:53:14.333Z,10.76
2023-04-01T01:56:19.927Z,10.80
2023-04-01T01:59:23.021Z,10.72
2023-04-01T02:02:26.468Z,10.72
2023-04-01T02:05:31.417Z,10.84
2023-04-01T02:08:52.674Z,10.87
2023-04-01T02:11:59.882Z,10.89
2023-04-01T02:15:10.827Z,10.98
2023-04-01T02:18:14.727Z,11.02
2023-04-01T02:21:17.727Z,11.03
2023-04-01T02:24:23.225Z,11.04
2023-04-01T02:27:25.923Z,11.02
2023-04-01T02:30:34.651Z,11.06
2023-04-01T02:33:37.653Z,11.04
2023-04-01T02:36:39.521Z,11.07
2023-04-01T02:39:41.142Z,11.05
2023-04-01T02:42:42.889Z,11.07
2023-04-01T02:45:44.941Z,11.09
2023-04-01T02:48:46.333Z,11.06
2023-04-01T02:51:48.001Z,11.08
2023-04-01T02:54:49.402Z,10.98
2023-04-01T02:57:50.777Z,11.01
2023-04-01T03:00:52.222Z,10.98
2023-04-01T03:03:53.596Z,10.87
2023-04-01T03:06:56.270Z,10.87
2023-04-01T03:09:57.671Z,10.93
2023-04-01T03:12:59.059Z,10.86
2023-04-01T03:16:01.014Z,10.84
2023-04-01T03:19:03.101Z,10.89
2023-04-01T03:22:04.981Z,10.87
2023-04-01T03:25:08.518Z,10.78
2023-04-01T03:28:09.925Z,10.70
2023-04-01T03:31:12.410Z,10.59
2023-04-01T03:34:20.225Z,10.56
2023-04-01T03:37:21.709Z,10.53
2023-04-01T03:40:23.627Z,10.50
2023-04-01T03:43:25.334Z,10.51
2023-04-01T03:46:26.847Z,10.51
2023-04-01T03:49:29.602Z,10.45
2023-04-01T03:52:31.158Z,10.46
2023-04-01T03:55:32.783Z,10.47
2023-04-01T03:58:35.552Z,10.47
2023-04-01T04:01:38.047Z,10.39
2023-04-01T04:04:39.703Z,10.40
2023-04-01T04:07:41.390Z,10.41
2023-04-01T04:10:43.902Z,10.36
2023-04-01T04:13:45.453Z,10.25
2023-04-01T04:16:47.270Z,10.25
2023-04-01T04:19:48.714Z,10.17
2023-04-01T04:22:50.815Z,10.18
2023-04-01T04:25:59.955Z,10.10
2023-04-01T04:29:04.107Z,10.10
2023-04-01T04:32:06.727Z,10.04
2023-04-01T04:35:08.711Z,10.06
2023-04-01T04:38:10.232Z,10.01
2023-04-01T04:41:13.654Z,10.01
2023-04-01T04:44:16.536Z,10.09
2023-04-01T04:47:18.200Z,10.05
2023-04-01T04:50:20.291Z,10.02
2023-04-01T04:53:21.771Z,10.04
2023-04-01T04:56:26.217Z,10.03
2023-04-01T04:59:42.226Z,10.07
2023-04-01T05:02:47.992Z,10.16
2023-04-01T05:05:52.013Z,10.20
2023-04-01T05:08:53.435Z,10.24
2023-04-01T05:11:54.812Z,10.35
2023-04-01T05:14:57.215Z,10.33
2023-04-01T05:17:59.075Z,10.37
2023-04-01T05:21:00.580Z,10.42
2023-04-01T05:24:02.157Z,10.45
2023-04-01T05:27:06.120Z,10.45
2023-04-01T05:30:11.006Z,10.51
2023-04-01T05:33:28.488Z,10.50
2023-04-01T05:36:30.224Z,10.55
2023-04-01T05:39:31.895Z,10.59
2023-04-01T05:42:36.060Z,10.58
2023-04-01T05:45:38.641Z,10.59
2023-04-01T05:48:48.989Z,10.59
2023-04-01T05:51:50.591Z,10.58
2023-04-01T05:54:52.218Z,10.63
2023-04-01T05:57:53.675Z,10.61
2023-04-01T06:01:10.329Z,10.58
2023-04-01T06:04:19.043Z,10.59
2023-04-01T06:07:21.305Z,10.60
2023-04-01T06:10:32.274Z,10.60
2023-04-01T06:14:25.878Z,10.62
2023-04-01T06:17:51.481Z,10.59
2023-04-01T06:21:15.929Z,10.63
2023-04-01T06:25:04.792Z,10.67
2023-04-01T06:28:38.455Z,10.59
2023-04-01T06:32:04.496Z,10.60
2023-04-01T06:35:24.798Z,10.59
2023-04-01T06:38:44.379Z,10.51
2023-04-01T06:42:04.231Z,10.39
2023-04-01T06:45:31.087Z,10.30
2023-04-01T06:49:20.484Z,10.20
2023-04-01T06:53:13.513Z,10.17
2023-04-01T06:56:59.014Z,10.17
2023-04-01T07:00:13.070Z,10.19
2023-04-01T07:03:36.338Z,10.16
2023-04-01T07:06:47.852Z,10.20
2023-04-01T07:09:56.654Z,10.15
2023-04-01T07:13:14.578Z,10.14
2023-04-01T07:16:41.948Z,10.19
2023-04-01T07:19:55.021Z,10.15
2023-04-01T07:23:03.037Z,10.18
2023-04-01T07:26:26.069Z,10.19
2023-04-01T07:29:49.722Z,10.27
2023-04-01T07:33:16.172Z,10.21
2023-04-01T07:36:33.397Z,10.29
2023-04-01T07:40:01.123Z,10.30
2023-04-01T07:43:53.670Z,10.37
2023-04-01T07:47:16.749Z,10.37
2023-04-01T07:50:35.027Z,10.31
2023-04-01T07:54:01.266Z,10.39
2023-04-01T07:57:32.311Z,10.43
2023-04-01T08:01:00.077Z,10.44
2023-04-01T08:04:28.863Z,10.37
2023-04-01T08:07:53.274Z,10.32
2023-04-01T08:11:32.100Z,10.52
2023-04-01T08:15:33.419Z,10.40
2023-04-01T08:19:10.769Z,10.38
2023-04-01T08:22:20.989Z,10.40
2023-04-01T08:25:29.728Z,10.46
2023-04-01T08:28:45.630Z,10.57
2023-04-01T08:32:07.641Z,10.51
2023-04-01T08:35:20.223Z,10.57
2023-04-01T08:38:41.425Z,10.56
2023-04-01T08:42:12.737Z,10.58
2023-04-01T08:45:44.233Z,10.57
2023-04-01T08:49:00.837Z,10.55
2023-04-01T08:52:21.867Z,10.53
2023-04-01T08:55:32.611Z,10.48
2023-04-01T08:59:05.812Z,10.52
2023-04-01T09:02:26.312Z,10.53
2023-04-01T09:05:44.388Z,10.56
2023-04-01T09:08:58.110Z,10.59
2023-04-01T09:12:38.088Z,10.66
2023-04-01T09:16:17.525Z,10.78
2023-04-01T09:19:55.193Z,10.78
2023-04-01T09:23:17.345Z,10.88
2023-04-01T09:26:35.538Z,10.90
2023-04-01T09:30:03.600Z,10.90
2023-04-01T09:33:25.022Z,10.95
2023-04-01T09:36:46.900Z,10.97
2023-04-01T09:40:10.214Z,10.95
2023-04-01T09:43:30.947Z,11.11
2023-04-01T09:47:01.334Z,10.92
2023-04-01T09:50:22.463Z,10.97
2023-04-01T09:53:30.814Z,10.90
2023-04-01T09:57:03.699Z,10.95
2023-04-01T10:00:21.228Z,10.93
2023-04-01T10:03:57.453Z,11.03
2023-04-01T10:07:23.410Z,11.02
2023-04-01T10:10:47.260Z,11.00
2023-04-01T10:14:01.761Z,10.99
2023-04-01T10:17:33.282Z,11.08
2023-04-01T10:20:42.118Z,11.11
2023-04-01T10:23:56.819Z,11.19
2023-04-01T10:27:14.981Z,11.18
2023-04-01T10:30:49.916Z,11.20
2023-04-01T10:34:29.517Z,11.10
2023-04-01T10:37:40.906Z,11.18
2023-04-01T10:41:09.253Z,11.26
2023-04-01T10:45:10.642Z,11.35
2023-04-01T10:48:58.668Z,11.42
2023-04-01T10:52:35.896Z,11.29
2023-04-01T10:56:26.591Z,11.29
2023-04-01T11:00:17.969Z,11.35
2023-04-01T11:04:19.238Z,11.34
2023-04-01T11:08:06.763Z,11.39
2023-04-01T11:11:27.346Z,11.49
2023-04-01T11:15:09.806Z,11.50
2023-04-01T11:18:36.039Z,11.40
2023-04-01T11:22:07.720Z,11.42
2023-04-01T11:25:31.234Z,11.50
2023-04-01T11:29:10.975Z,11.49
2023-04-01T11:32:25.918Z,11.46
2023-04-01T11:35:47.375Z,11.49
2023-04-01T11:39:12.211Z,11.57
2023-04-01T11:43:37.140Z,11.47
2023-04-01T11:47:23.558Z,11.42
2023-04-01T11:50:32.793Z,11.41
2023-04-01T11:53:54.850Z,11.53
2023-04-01T11:57:40.559Z,11.42
2023-04-01T12:00:50.286Z,11.31
2023-04-01T12:04:17.995Z,11.38
2023-04-01T12:07:52.318Z,11.45
2023-04-01T12:11:05.371Z,11.47
2023-04-01T12:14:20.488Z,11.60
2023-04-01T12:17:35.302Z,11.66
2023-04-01T12:21:09.327Z,11.70
2023-04-01T12:24:37.905Z,11.63
2023-04-01T12:28:00.738Z,11.60
2023-04-01T12:31:15.414Z,11.64
2023-04-01T12:34:35.463Z,11.71
2023-04-01T12:37:45.927Z,11.74
2023-04-01T12:41:15.482Z,11.69
2023-04-01T12:44:55.308Z,11.75
2023-04-01T12:48:35.073Z,11.79
2023-04-01T12:51:58.604Z,11.68
2023-04-01T12:55:18.704Z,11.69
2023-04-01T12:58:44.030Z,11.70
2023-04-01T13:02:24.029Z,11.81
2023-04-01T13:05:58.263Z,11.89
2023-04-01T13:09:23.403Z,11.97
2023-04-01T13:12:37.128Z,11.97
2023-04-01T13:15:58.159Z,12.03
2023-04-01T13:19:05.781Z,12.09
2023-04-01T13:22:27.593Z,12.10
2023-04-01T13:26:07.058Z,12.08
2023-04-01T13:29:21.151Z,12.03
2023-04-01T13:32:44.010Z,12.10
2023-04-01T13:35:51.660Z,12.06
2023-04-01T13:39:14.739Z,12.02
2023-04-01T13:42:26.135Z,12.04
2023-04-01T13:45:32.587Z,12.02
2023-04-01T13:49:09.731Z,11.94
2023-04-01T13:52:49.619Z,11.96
2023-04-01T13:56:03.747Z,11.96
2023-04-01T13:59:37.647Z,11.99
2023-04-01T14:03:16.305Z,11.99
2023-04-01T14:06:32.241Z,11.94
2023-04-01T14:09:52.015Z,11.89
2023-04-01T14:13:19.575Z,11.85
2023-04-01T14:17:01.574Z,12.07
2023-04-01T14:20:16.293Z,12.00
2023-04-01T14:23:43.396Z,11.92
2023-04-01T14:27:00.540Z,11.88
2023-04-01T14:30:18.667Z,11.91
2023-04-01T14:33:32.231Z,11.97
2023-04-01T14:36:54.952Z,11.96
2023-04-01T14:40:27.428Z,11.95
2023-04-01T14:43:47.876Z,12.00
2023-04-01T14:47:11.037Z,12.02
2023-04-01T14:50:17.749Z,12.00
2023-04-01T14:53:29.872Z,12.02
2023-04-01T14:56:43.538Z,11.94
2023-04-01T15:00:14.318Z,11.94
2023-04-01T15:03:30.531Z,11.94
2023-04-01T15:06:46.632Z,11.90
2023-04-01T15:10:20.684Z,11.87
2023-04-01T15:13:31.300Z,11.85
2023-04-01T15:17:17.747Z,11.78
2023-04-01T15:20:49.127Z,11.70
2023-04-01T15:24:16.647Z,11.68
2023-04-01T15:27:24.804Z,11.67
2023-04-01T15:30:33.896Z,11.72
2023-04-01T15:33:35.240Z,11.67
2023-04-01T15:36:45.651Z,11.73
2023-04-01T15:39:50.063Z,11.69
2023-04-01T15:43:12.354Z,11.66
2023-04-01T15:46:42.797Z,11.73
2023-04-01T15:49:54.313Z,11.67
2023-04-01T15:53:19.356Z,11.73
2023-04-01T15:56:40.737Z,11.80
2023-04-01T16:00:11.254Z,11.78
2023-04-01T16:03:36.994Z,11.86
2023-04-01T16:06:44.278Z,11.90
2023-04-01T16:10:04.729Z,11.95
2023-04-01T16:13:43.874Z,12.06
2023-04-01T16:16:48.065Z,12.08
2023-04-01T16:20:23.623Z,12.14
2023-04-01T16:23:38.919Z,12.14
2023-04-01T16:26:50.957Z,12.04
2023-04-01T16:30:22.107Z,11.94
2023-04-01T16:33:51.014Z,11.86
2023-04-01T16:37:08.002Z,11.84
2023-04-01T16:40:21.709Z,11.94
2023-04-01T16:43:31.879Z,11.95
2023-04-01T16:46:44.968Z,12.00
2023-04-01T16:50:14.274Z,11.93
2023-04-01T16:53:30.853Z,11.88
2023-04-01T16:57:04.038Z,11.88
2023-04-01T17:00:38.055Z,11.85
2023-04-01T17:03:44.661Z,11.90
2023-04-01T17:07:06.525Z,11.89
2023-04-01T17:10:29.071Z,11.88
2023-04-01T17:13:35.155Z,11.85
2023-04-01T17:16:47.152Z,11.82
2023-04-01T17:20:07.062Z,11.83
2023-04-01T17:23:20.068Z,11.85
2023-04-01T17:26:50.319Z,11.88
2023-04-01T17:30:36.758Z,11.82
2023-04-01T17:34:12.280Z,11.87
2023-04-01T17:37:29.398Z,11.83
2023-04-01T17:40:54.775Z,11.81
2023-04-01T17:44:16.986Z,11.85
2023-04-01T17:47:35.677Z,11.75
2023-04-01T17:50:51.866Z,11.68
2023-04-01T17:54:09.767Z,11.73
2023-04-01T17:57:26.814Z,11.65
2023-04-01T18:00:53.943Z,11.55
2023-04-01T18:04:04.185Z,11.49
2023-04-01T18:07:27.082Z,11.41
2023-04-01T18:10:52.828Z,11.36
2023-04-01T18:14:22.107Z,11.33
2023-04-01T18:17:42.330Z,11.25
2023-04-01T18:21:24.404Z,11.15
2023-04-01T18:24:32.936Z,11.17
2023-04-01T18:27:38.579Z,11.09
2023-04-01T18:30:41.267Z,11.04
2023-04-01T18:33:54.537Z,11.06
2023-04-01T18:37:18.670Z,11.05
2023-04-01T18:40:27.276Z,10.99
2023-04-01T18:43:38.750Z,10.97
2023-04-01T18:47:25.038Z,10.95
2023-04-01T18:50:53.910Z,10.96
2023-04-01T18:53:58.129Z,10.87
2023-04-01T18:57:09.595Z,10.89
2023-04-01T19:00:20.200Z,10.87
2023-04-01T19:03:49.044Z,10.83
2023-04-01T19:06:55.717Z,10.78
2023-04-01T19:10:01.795Z,10.85
2023-04-01T19:13:09.230Z,10.73
2023-04-01T19:16:44.824Z,10.83
2023-04-01T19:19:52.429Z,10.82
2023-04-01T19:23:21.830Z,10.83
2023-04-01T19:26:41.441Z,10.86
2023-04-01T19:30:20.334Z,10.89
2023-04-01T19:33:50.663Z,10.83
2023-04-01T19:37:00.579Z,10.86
2023-04-01T19:40:39.162Z,10.84
2023-04-01T19:44:08.711Z,10.85
2023-04-01T19:47:31.652Z,10.82
2023-04-01T19:50:39.229Z,10.77
2023-04-01T19:54:07.359Z,10.76
2023-04-01T19:57:34.226Z,10.76
2023-04-01T20:00:41.702Z,10.73
2023-04-01T20:03:51.598Z,10.66
2023-04-01T20:07:08.242Z,10.67
2023-04-01T20:10:15.434Z,10.60
2023-04-01T20:13:45.696Z,10.63
2023-04-01T20:17:21.632Z,10.57
2023-04-01T20:20:27.598Z,10.67
2023-04-01T20:23:58.402Z,10.60
2023-04-01T20:27:08.176Z,10.47
2023-04-01T20:30:29.001Z,10.47
2023-04-01T20:34:03.966Z,10.48
2023-04-01T20:37:33.432Z,10.45
2023-04-01T20:40:41.739Z,10.49
2023-04-01T20:44:09.338Z,10.48
2023-04-01T20:47:19.805Z,10.48
2023-04-01T20:50:40.597Z,10.39
2023-04-01T20:53:57.856Z,10.32
2023-04-01T20:57:12.953Z,10.32
2023-04-01T21:00:43.030Z,10.35
2023-04-01T21:04:05.868Z,10.29
2023-04-01T21:07:25.870Z,10.20
2023-04-01T21:10:56.487Z,10.22
2023-04-01T21:14:22.115Z,10.19
2023-04-01T21:17:48.822Z,10.23
2023-04-01T21:21:08.930Z,10.23
2023-04-01T21:24:13.229Z,10.20
2023-04-01T21:27:35.087Z,10.17
2023-04-01T21:30:55.544Z,10.14
2023-04-01T21:34:04.917Z,10.25
2023-04-01T21:37:36.336Z,10.19
2023-04-01T21:41:11.268Z,10.17
2023-04-01T21:44:44.777Z,10.18
2023-04-01T21:47:46.228Z,10.17
2023-04-01T21:51:09.422Z,10.22
2023-04-01T21:54:27.384Z,10.25
2023-04-01T21:57:43.410Z,10.28
2023-04-01T22:01:03.663Z,10.30
2023-04-01T22:04:26.460Z,10.29
2023-04-01T22:07:46.520Z,10.23
2023-04-01T22:10:54.360Z,10.20
2023-04-01T22:14:04.527Z,10.20
2023-04-01T22:17:09.020Z,10.18
2023-04-01T22:20:24.057Z,10.16
2023-04-01T22:23:47.803Z,10.20
2023-04-01T22:27:07.253Z,10.19
2023-04-01T22:30:19.464Z,10.17
2023-04-01T22:33:25.439Z,10.11
2023-04-01T22:36:35.656Z,10.12
2023-04-01T22:40:09.437Z,10.15
2023-04-01T22:43:31.576Z,10.13
2023-04-01T22:46:47.846Z,10.09
2023-04-01T22:49:59.940Z,10.18
2023-04-01T22:53:28.176Z,10.06
2023-04-01T22:56:36.577Z,10.12
2023-04-01T22:59:59.966Z,10.10
2023-04-01T23:03:23.124Z,10.13
2023-04-01T23:06:29.440Z,10.07
2023-04-01T23:09:34.221Z,10.10
2023-04-01T23:12:35.996Z,10.02
2023-04-01T23:15:38.594Z,10.01
2023-04-01T23:18:57.298Z,9.97
2023-04-01T23:21:58.595Z,10.02
2023-04-01T23:25:23.766Z,9.99
2023-04-01T23:28:44.941Z,9.95
2023-04-01T23:31:48.127Z,9.89
2023-04-01T23:34:52.246Z,9.85
2023-04-01T23:37:54.101Z,9.95
2023-04-01T23:40:56.404Z,9.97
2023-04-01T23:44:17.023Z,9.82
2023-04-01T23:47:25.490Z,9.72
2023-04-01T23:50:28.074Z,9.75
2023-04-01T23:53:33.340Z,9.71
2023-04-01T23:56:39.653Z,9.68
2023-04-01T23:59:41.161Z,9.65
